sensor_id;sensor_type;location;lat;lon;timestamp;P1;durP1;ratioP1;P2;durP2;ratioP2
14817;SDS011;7500;57.698;11.986;2022-11-20T00:00:20;1.60;;;1.00;;
14817;SDS011;7500;57.698;11.986;2022-11-20T00:02:47;1.03;;;0.80;;
14817;SDS011;7500;57.698;11.986;2022-11-20T00:05:13;1.97;;;1.57;;
14817;SDS011;7500;57.698;11.986;2022-11-20T00:07:40;1.20;;;1.10;;
14817;SDS011;7500;57.698;11.986;2022-11-20T00:10:09;0.90;;;0.90;;
14817;SDS011;7500;57.698;11.986;2022-11-20T00:12:36;1.53;;;1.20;;
14817;SDS011;7500;57.698;11.986;2022-11-20T00:15:06;2.30;;;1.00;;
14817;SDS011;7500;57.698;11.986;2022-11-20T00:17:33;1.67;;;0.97;;
14817;SDS011;7500;57.698;11.986;2022-11-20T00:20:00;2.23;;;0.70;;
14817;SDS011;7500;57.698;11.986;2022-11-20T00:22:27;2.23;;;0.90;;
14817;SDS011;7500;57.698;11.986;2022-11-20T00:24:54;1.73;;;1.13;;
14817;SDS011;7500;57.698;11.986;2022-11-20T00:27:23;1.00;;;0.90;;
14817;SDS011;7500;57.698;11.986;2022-11-20T00:29:50;0.90;;;0.90;;
14817;SDS011;7500;57.698;11.986;2022-11-20T00:32:17;1.73;;;1.47;;
14817;SDS011;7500;57.698;11.986;2022-11-20T00:34:44;1.20;;;1.10;;
14817;SDS011;7500;57.698;11.986;2022-11-20T00:37:10;2.03;;;0.87;;
14817;SDS011;7500;57.698;11.986;2022-11-20T00:39:37;1.40;;;1.00;;
14817;SDS011;7500;57.698;11.986;2022-11-20T00:42:04;2.07;;;0.93;;
14817;SDS011;7500;57.698;11.986;2022-11-20T00:44:32;1.13;;;0.90;;
14817;SDS011;7500;57.698;11.986;2022-11-20T00:46:59;1.23;;;0.87;;
14817;SDS011;7500;57.698;11.986;2022-11-20T00:49:26;1.33;;;1.23;;
14817;SDS011;7500;57.698;11.986;2022-11-20T00:51:53;1.23;;;1.00;;
14817;SDS011;7500;57.698;11.986;2022-11-20T00:54:20;1.10;;;0.90;;
14817;SDS011;7500;57.698;11.986;2022-11-20T00:56:47;2.43;;;1.20;;
14817;SDS011;7500;57.698;11.986;2022-11-20T00:59:13;1.70;;;0.90;;
14817;SDS011;7500;57.698;11.986;2022-11-20T01:01:42;1.33;;;1.07;;
14817;SDS011;7500;57.698;11.986;2022-11-20T01:04:08;1.27;;;1.03;;
14817;SDS011;7500;57.698;11.986;2022-11-20T01:06:36;1.10;;;1.00;;
14817;SDS011;7500;57.698;11.986;2022-11-20T01:09:05;1.10;;;0.90;;
14817;SDS011;7500;57.698;11.986;2022-11-20T01:11:33;1.10;;;1.00;;
14817;SDS011;7500;57.698;11.986;2022-11-20T01:14:03;1.07;;;0.97;;
14817;SDS011;7500;57.698;11.986;2022-11-20T01:16:33;1.10;;;1.00;;
14817;SDS011;7500;57.698;11.986;2022-11-20T01:19:03;1.13;;;0.90;;
14817;SDS011;7500;57.698;11.986;2022-11-20T01:21:32;1.37;;;1.27;;
14817;SDS011;7500;57.698;11.986;2022-11-20T01:24:01;0.80;;;0.80;;
14817;SDS011;7500;57.698;11.986;2022-11-20T01:26:28;2.20;;;1.20;;
14817;SDS011;7500;57.698;11.986;2022-11-20T01:28:57;1.17;;;1.10;;
14817;SDS011;7500;57.698;11.986;2022-11-20T01:31:25;1.07;;;0.90;;
14817;SDS011;7500;57.698;11.986;2022-11-20T01:33:54;1.53;;;1.23;;
14817;SDS011;7500;57.698;11.986;2022-11-20T01:36:24;1.58;;;1.15;;
14817;SDS011;7500;57.698;11.986;2022-11-20T01:38:52;1.30;;;1.10;;
14817;SDS011;7500;57.698;11.986;2022-11-20T01:41:19;1.60;;;1.33;;
14817;SDS011;7500;57.698;11.986;2022-11-20T01:44:04;2.13;;;1.00;;
14817;SDS011;7500;57.698;11.986;2022-11-20T01:46:32;1.13;;;1.03;;
14817;SDS011;7500;57.698;11.986;2022-11-20T01:49:01;2.27;;;1.00;;
14817;SDS011;7500;57.698;11.986;2022-11-20T01:51:32;1.37;;;1.10;;
14817;SDS011;7500;57.698;11.986;2022-11-20T01:54:02;2.17;;;1.30;;
14817;SDS011;7500;57.698;11.986;2022-11-20T01:56:33;1.20;;;1.10;;
14817;SDS011;7500;57.698;11.986;2022-11-20T01:59:04;1.40;;;1.30;;
14817;SDS011;7500;57.698;11.986;2022-11-20T02:01:33;1.13;;;1.10;;
14817;SDS011;7500;57.698;11.986;2022-11-20T02:04:00;1.67;;;1.30;;
14817;SDS011;7500;57.698;11.986;2022-11-20T02:06:29;1.93;;;1.00;;
14817;SDS011;7500;57.698;11.986;2022-11-20T02:09:01;1.33;;;1.23;;
14817;SDS011;7500;57.698;11.986;2022-11-20T02:11:29;1.33;;;1.00;;
14817;SDS011;7500;57.698;11.986;2022-11-20T02:13:56;1.77;;;1.40;;
14817;SDS011;7500;57.698;11.986;2022-11-20T02:16:23;1.43;;;1.27;;
14817;SDS011;7500;57.698;11.986;2022-11-20T02:18:53;2.07;;;1.27;;
14817;SDS011;7500;57.698;11.986;2022-11-20T02:21:28;1.20;;;1.10;;
14817;SDS011;7500;57.698;11.986;2022-11-20T02:24:06;1.23;;;1.10;;
14817;SDS011;7500;57.698;11.986;2022-11-20T02:26:37;1.90;;;1.40;;
14817;SDS011;7500;57.698;11.986;2022-11-20T02:29:08;1.47;;;1.20;;
14817;SDS011;7500;57.698;11.986;2022-11-20T02:31:36;1.60;;;1.30;;
14817;SDS011;7500;57.698;11.986;2022-11-20T02:34:04;1.20;;;1.10;;
14817;SDS011;7500;57.698;11.986;2022-11-20T02:36:31;1.30;;;1.20;;
14817;SDS011;7500;57.698;11.986;2022-11-20T02:39:01;1.77;;;1.17;;
14817;SDS011;7500;57.698;11.986;2022-11-20T02:41:34;1.50;;;1.40;;
14817;SDS011;7500;57.698;11.986;2022-11-20T02:44:02;1.37;;;1.17;;
14817;SDS011;7500;57.698;11.986;2022-11-20T02:46:30;1.80;;;1.30;;
14817;SDS011;7500;57.698;11.986;2022-11-20T02:48:57;1.60;;;1.30;;
14817;SDS011;7500;57.698;11.986;2022-11-20T02:51:24;1.33;;;1.23;;
14817;SDS011;7500;57.698;11.986;2022-11-20T02:53:51;1.73;;;1.27;;
14817;SDS011;7500;57.698;11.986;2022-11-20T02:56:18;2.53;;;1.30;;
14817;SDS011;7500;57.698;11.986;2022-11-20T02:58:46;1.77;;;1.67;;
14817;SDS011;7500;57.698;11.986;2022-11-20T03:01:13;1.40;;;1.20;;
14817;SDS011;7500;57.698;11.986;2022-11-20T03:03:40;2.27;;;1.40;;
14817;SDS011;7500;57.698;11.986;2022-11-20T03:06:07;2.07;;;1.17;;
14817;SDS011;7500;57.698;11.986;2022-11-20T03:08:34;2.23;;;1.40;;
14817;SDS011;7500;57.698;11.986;2022-11-20T03:11:02;1.70;;;1.40;;
14817;SDS011;7500;57.698;11.986;2022-11-20T03:13:31;1.77;;;1.10;;
14817;SDS011;7500;57.698;11.986;2022-11-20T03:16:03;2.70;;;1.20;;
14817;SDS011;7500;57.698;11.986;2022-11-20T03:18:32;1.30;;;1.20;;
14817;SDS011;7500;57.698;11.986;2022-11-20T03:20:58;1.53;;;1.43;;
14817;SDS011;7500;57.698;11.986;2022-11-20T03:23:25;1.63;;;1.37;;
14817;SDS011;7500;57.698;11.986;2022-11-20T03:25:54;1.33;;;1.20;;
14817;SDS011;7500;57.698;11.986;2022-11-20T03:28:21;2.90;;;1.10;;
14817;SDS011;7500;57.698;11.986;2022-11-20T03:30:48;1.47;;;1.37;;
14817;SDS011;7500;57.698;11.986;2022-11-20T03:33:16;1.80;;;1.63;;
14817;SDS011;7500;57.698;11.986;2022-11-20T03:35:43;2.00;;;1.33;;
14817;SDS011;7500;57.698;11.986;2022-11-20T03:38:09;1.93;;;1.40;;
14817;SDS011;7500;57.698;11.986;2022-11-20T03:40:36;1.50;;;1.40;;
14817;SDS011;7500;57.698;11.986;2022-11-20T03:43:03;1.60;;;1.30;;
14817;SDS011;7500;57.698;11.986;2022-11-20T03:45:30;1.50;;;1.40;;
14817;SDS011;7500;57.698;11.986;2022-11-20T03:47:57;2.93;;;1.67;;
14817;SDS011;7500;57.698;11.986;2022-11-20T03:50:25;1.70;;;1.50;;
14817;SDS011;7500;57.698;11.986;2022-11-20T03:52:52;1.50;;;1.40;;
14817;SDS011;7500;57.698;11.986;2022-11-20T03:55:19;1.60;;;1.50;;
14817;SDS011;7500;57.698;11.986;2022-11-20T03:57:45;1.80;;;1.70;;
14817;SDS011;7500;57.698;11.986;2022-11-20T04:02:41;1.90;;;1.50;;
14817;SDS011;7500;57.698;11.986;2022-11-20T04:05:08;2.97;;;1.70;;
14817;SDS011;7500;57.698;11.986;2022-11-20T04:07:36;2.53;;;1.60;;
14817;SDS011;7500;57.698;11.986;2022-11-20T04:10:03;1.90;;;1.70;;
14817;SDS011;7500;57.698;11.986;2022-11-20T04:12:31;1.60;;;1.50;;
14817;SDS011;7500;57.698;11.986;2022-11-20T04:14:59;4.03;;;1.80;;
14817;SDS011;7500;57.698;11.986;2022-11-20T04:17:26;1.93;;;1.70;;
14817;SDS011;7500;57.698;11.986;2022-11-20T04:19:52;1.83;;;1.73;;
14817;SDS011;7500;57.698;11.986;2022-11-20T04:22:19;1.90;;;1.60;;
14817;SDS011;7500;57.698;11.986;2022-11-20T04:24:47;2.07;;;1.60;;
14817;SDS011;7500;57.698;11.986;2022-11-20T04:27:14;1.80;;;1.70;;
14817;SDS011;7500;57.698;11.986;2022-11-20T04:29:41;2.33;;;1.90;;
14817;SDS011;7500;57.698;11.986;2022-11-20T04:32:08;1.80;;;1.63;;
14817;SDS011;7500;57.698;11.986;2022-11-20T04:34:35;1.60;;;1.43;;
14817;SDS011;7500;57.698;11.986;2022-11-20T04:37:02;1.67;;;1.57;;
14817;SDS011;7500;57.698;11.986;2022-11-20T04:39:29;2.00;;;1.83;;
14817;SDS011;7500;57.698;11.986;2022-11-20T04:41:57;1.60;;;1.50;;
14817;SDS011;7500;57.698;11.986;2022-11-20T04:44:38;1.90;;;1.60;;
14817;SDS011;7500;57.698;11.986;2022-11-20T04:47:04;1.67;;;1.43;;
14817;SDS011;7500;57.698;11.986;2022-11-20T04:49:31;2.63;;;1.77;;
14817;SDS011;7500;57.698;11.986;2022-11-20T04:51:58;2.70;;;1.53;;
14817;SDS011;7500;57.698;11.986;2022-11-20T04:54:25;1.67;;;1.57;;
14817;SDS011;7500;57.698;11.986;2022-11-20T04:56:52;2.13;;;1.63;;
14817;SDS011;7500;57.698;11.986;2022-11-20T04:59:20;1.70;;;1.53;;
14817;SDS011;7500;57.698;11.986;2022-11-20T05:01:47;1.47;;;1.37;;
14817;SDS011;7500;57.698;11.986;2022-11-20T05:04:14;1.60;;;1.50;;
14817;SDS011;7500;57.698;11.986;2022-11-20T05:06:41;1.87;;;1.73;;
14817;SDS011;7500;57.698;11.986;2022-11-20T05:09:08;2.10;;;1.50;;
14817;SDS011;7500;57.698;11.986;2022-11-20T05:11:35;2.53;;;1.60;;
14817;SDS011;7500;57.698;11.986;2022-11-20T05:14:01;1.63;;;1.53;;
14817;SDS011;7500;57.698;11.986;2022-11-20T05:16:30;2.27;;;1.70;;
14817;SDS011;7500;57.698;11.986;2022-11-20T05:18:57;2.73;;;1.90;;
14817;SDS011;7500;57.698;11.986;2022-11-20T05:21:23;2.43;;;1.80;;
14817;SDS011;7500;57.698;11.986;2022-11-20T05:23:50;1.67;;;1.53;;
14817;SDS011;7500;57.698;11.986;2022-11-20T05:26:18;2.87;;;1.33;;
14817;SDS011;7500;57.698;11.986;2022-11-20T05:28:46;1.63;;;1.53;;
14817;SDS011;7500;57.698;11.986;2022-11-20T05:31:14;1.77;;;1.67;;
14817;SDS011;7500;57.698;11.986;2022-11-20T05:33:43;1.67;;;1.40;;
14817;SDS011;7500;57.698;11.986;2022-11-20T05:36:11;1.70;;;1.60;;
14817;SDS011;7500;57.698;11.986;2022-11-20T05:38:40;2.10;;;1.77;;
14817;SDS011;7500;57.698;11.986;2022-11-20T05:41:08;1.70;;;1.50;;
14817;SDS011;7500;57.698;11.986;2022-11-20T05:43:37;1.60;;;1.50;;
14817;SDS011;7500;57.698;11.986;2022-11-20T05:46:06;1.73;;;1.43;;
14817;SDS011;7500;57.698;11.986;2022-11-20T05:48:35;2.27;;;1.63;;
14817;SDS011;7500;57.698;11.986;2022-11-20T05:51:05;1.90;;;1.70;;
14817;SDS011;7500;57.698;11.986;2022-11-20T05:53:33;1.63;;;1.53;;
14817;SDS011;7500;57.698;11.986;2022-11-20T05:56:00;2.47;;;1.60;;
14817;SDS011;7500;57.698;11.986;2022-11-20T05:58:28;2.53;;;1.67;;
14817;SDS011;7500;57.698;11.986;2022-11-20T06:01:02;1.80;;;1.70;;
14817;SDS011;7500;57.698;11.986;2022-11-20T06:03:30;2.07;;;1.67;;
14817;SDS011;7500;57.698;11.986;2022-11-20T06:05:58;1.90;;;1.70;;
14817;SDS011;7500;57.698;11.986;2022-11-20T06:08:26;2.20;;;1.80;;
14817;SDS011;7500;57.698;11.986;2022-11-20T06:10:53;1.90;;;1.80;;
14817;SDS011;7500;57.698;11.986;2022-11-20T06:13:20;1.90;;;1.80;;
14817;SDS011;7500;57.698;11.986;2022-11-20T06:15:48;1.70;;;1.60;;
14817;SDS011;7500;57.698;11.986;2022-11-20T06:18:15;1.53;;;1.43;;
14817;SDS011;7500;57.698;11.986;2022-11-20T06:20:42;1.50;;;1.40;;
14817;SDS011;7500;57.698;11.986;2022-11-20T06:23:08;2.57;;;1.87;;
14817;SDS011;7500;57.698;11.986;2022-11-20T06:25:38;1.80;;;1.60;;
14817;SDS011;7500;57.698;11.986;2022-11-20T06:28:05;2.07;;;1.60;;
14817;SDS011;7500;57.698;11.986;2022-11-20T06:30:32;2.30;;;1.73;;
14817;SDS011;7500;57.698;11.986;2022-11-20T06:32:59;1.70;;;1.60;;
14817;SDS011;7500;57.698;11.986;2022-11-20T06:35:26;2.10;;;1.80;;
14817;SDS011;7500;57.698;11.986;2022-11-20T06:37:52;2.67;;;1.67;;
14817;SDS011;7500;57.698;11.986;2022-11-20T06:40:19;1.93;;;1.73;;
14817;SDS011;7500;57.698;11.986;2022-11-20T06:42:47;2.30;;;1.50;;
14817;SDS011;7500;57.698;11.986;2022-11-20T06:45:14;4.00;;;1.80;;
14817;SDS011;7500;57.698;11.986;2022-11-20T06:47:41;1.70;;;1.60;;
14817;SDS011;7500;57.698;11.986;2022-11-20T06:50:08;1.97;;;1.83;;
14817;SDS011;7500;57.698;11.986;2022-11-20T06:52:35;2.50;;;1.97;;
14817;SDS011;7500;57.698;11.986;2022-11-20T06:55:02;2.03;;;1.63;;
14817;SDS011;7500;57.698;11.986;2022-11-20T06:57:29;2.27;;;1.67;;
14817;SDS011;7500;57.698;11.986;2022-11-20T06:59:57;1.90;;;1.63;;
14817;SDS011;7500;57.698;11.986;2022-11-20T07:02:24;1.70;;;1.60;;
14817;SDS011;7500;57.698;11.986;2022-11-20T07:04:51;2.17;;;1.90;;
14817;SDS011;7500;57.698;11.986;2022-11-20T07:07:18;2.90;;;1.70;;
14817;SDS011;7500;57.698;11.986;2022-11-20T07:09:44;2.57;;;1.70;;
14817;SDS011;7500;57.698;11.986;2022-11-20T07:12:11;3.70;;;1.50;;
14817;SDS011;7500;57.698;11.986;2022-11-20T07:14:38;1.73;;;1.50;;
14817;SDS011;7500;57.698;11.986;2022-11-20T07:17:06;2.03;;;1.53;;
14817;SDS011;7500;57.698;11.986;2022-11-20T07:19:33;2.00;;;1.80;;
14817;SDS011;7500;57.698;11.986;2022-11-20T07:22:00;2.13;;;1.93;;
14817;SDS011;7500;57.698;11.986;2022-11-20T07:24:26;1.93;;;1.73;;
14817;SDS011;7500;57.698;11.986;2022-11-20T07:26:53;1.73;;;1.60;;
14817;SDS011;7500;57.698;11.986;2022-11-20T07:29:20;1.83;;;1.60;;
14817;SDS011;7500;57.698;11.986;2022-11-20T07:31:47;2.40;;;1.60;;
14817;SDS011;7500;57.698;11.986;2022-11-20T07:34:15;1.70;;;1.57;;
14817;SDS011;7500;57.698;11.986;2022-11-20T07:36:42;2.97;;;1.60;;
14817;SDS011;7500;57.698;11.986;2022-11-20T07:39:08;1.93;;;1.40;;
14817;SDS011;7500;57.698;11.986;2022-11-20T07:41:35;2.57;;;1.57;;
14817;SDS011;7500;57.698;11.986;2022-11-20T07:44:02;1.23;;;1.13;;
14817;SDS011;7500;57.698;11.986;2022-11-20T07:46:29;1.70;;;1.60;;
14817;SDS011;7500;57.698;11.986;2022-11-20T07:48:56;1.73;;;1.60;;
14817;SDS011;7500;57.698;11.986;2022-11-20T07:51:24;1.63;;;1.30;;
14817;SDS011;7500;57.698;11.986;2022-11-20T07:53:52;1.50;;;1.40;;
14817;SDS011;7500;57.698;11.986;2022-11-20T07:56:19;1.87;;;1.30;;
14817;SDS011;7500;57.698;11.986;2022-11-20T07:58:46;2.03;;;1.30;;
14817;SDS011;7500;57.698;11.986;2022-11-20T08:01:13;2.17;;;1.63;;
14817;SDS011;7500;57.698;11.986;2022-11-20T08:03:39;2.57;;;1.60;;
14817;SDS011;7500;57.698;11.986;2022-11-20T08:06:07;3.20;;;1.43;;
14817;SDS011;7500;57.698;11.986;2022-11-20T08:08:35;1.53;;;1.43;;
14817;SDS011;7500;57.698;11.986;2022-11-20T08:11:04;1.43;;;1.33;;
14817;SDS011;7500;57.698;11.986;2022-11-20T08:13:48;2.23;;;1.57;;
14817;SDS011;7500;57.698;11.986;2022-11-20T08:16:32;1.77;;;1.50;;
14817;SDS011;7500;57.698;11.986;2022-11-20T08:18:59;1.60;;;1.47;;
14817;SDS011;7500;57.698;11.986;2022-11-20T08:21:26;4.47;;;3.13;;
14817;SDS011;7500;57.698;11.986;2022-11-20T08:23:54;1.63;;;1.47;;
14817;SDS011;7500;57.698;11.986;2022-11-20T08:26:21;2.33;;;1.40;;
14817;SDS011;7500;57.698;11.986;2022-11-20T08:28:48;1.77;;;1.50;;
14817;SDS011;7500;57.698;11.986;2022-11-20T08:31:15;2.40;;;1.40;;
14817;SDS011;7500;57.698;11.986;2022-11-20T08:33:42;1.77;;;1.50;;
14817;SDS011;7500;57.698;11.986;2022-11-20T08:36:09;1.90;;;1.80;;
14817;SDS011;7500;57.698;11.986;2022-11-20T08:38:35;4.90;;;1.80;;
14817;SDS011;7500;57.698;11.986;2022-11-20T08:41:04;2.07;;;1.70;;
14817;SDS011;7500;57.698;11.986;2022-11-20T08:43:51;2.70;;;1.60;;
14817;SDS011;7500;57.698;11.986;2022-11-20T08:46:19;1.83;;;1.70;;
14817;SDS011;7500;57.698;11.986;2022-11-20T08:48:46;2.43;;;1.90;;
14817;SDS011;7500;57.698;11.986;2022-11-20T08:51:13;1.97;;;1.70;;
14817;SDS011;7500;57.698;11.986;2022-11-20T08:53:40;1.50;;;1.30;;
14817;SDS011;7500;57.698;11.986;2022-11-20T08:56:09;1.40;;;1.30;;
14817;SDS011;7500;57.698;11.986;2022-11-20T08:58:36;1.40;;;1.30;;
14817;SDS011;7500;57.698;11.986;2022-11-20T09:01:03;1.83;;;1.37;;
14817;SDS011;7500;57.698;11.986;2022-11-20T09:03:30;1.53;;;1.13;;
14817;SDS011;7500;57.698;11.986;2022-11-20T09:05:58;2.77;;;1.47;;
14817;SDS011;7500;57.698;11.986;2022-11-20T09:08:26;1.63;;;1.33;;
14817;SDS011;7500;57.698;11.986;2022-11-20T09:10:53;1.60;;;1.50;;
14817;SDS011;7500;57.698;11.986;2022-11-20T09:13:22;1.80;;;1.33;;
14817;SDS011;7500;57.698;11.986;2022-11-20T09:15:52;1.70;;;1.30;;
14817;SDS011;7500;57.698;11.986;2022-11-20T09:18:20;1.90;;;1.37;;
14817;SDS011;7500;57.698;11.986;2022-11-20T09:20:47;1.57;;;1.20;;
14817;SDS011;7500;57.698;11.986;2022-11-20T09:23:14;1.30;;;1.20;;
14817;SDS011;7500;57.698;11.986;2022-11-20T09:25:41;2.10;;;1.20;;
14817;SDS011;7500;57.698;11.986;2022-11-20T09:28:08;2.60;;;1.40;;
14817;SDS011;7500;57.698;11.986;2022-11-20T09:30:36;1.60;;;1.50;;
14817;SDS011;7500;57.698;11.986;2022-11-20T09:33:05;1.50;;;1.40;;
14817;SDS011;7500;57.698;11.986;2022-11-20T09:35:32;2.47;;;1.20;;
14817;SDS011;7500;57.698;11.986;2022-11-20T09:38:03;1.97;;;1.27;;
14817;SDS011;7500;57.698;11.986;2022-11-20T09:40:31;2.37;;;1.20;;
14817;SDS011;7500;57.698;11.986;2022-11-20T09:42:59;1.40;;;1.20;;
14817;SDS011;7500;57.698;11.986;2022-11-20T09:45:41;1.17;;;1.10;;
14817;SDS011;7500;57.698;11.986;2022-11-20T09:51:10;2.50;;;1.50;;
14817;SDS011;7500;57.698;11.986;2022-11-20T09:53:50;3.00;;;1.53;;
14817;SDS011;7500;57.698;11.986;2022-11-20T09:56:27;1.90;;;1.40;;
14817;SDS011;7500;57.698;11.986;2022-11-20T09:58:55;2.37;;;1.73;;
14817;SDS011;7500;57.698;11.986;2022-11-20T10:01:29;1.63;;;1.30;;
14817;SDS011;7500;57.698;11.986;2022-11-20T10:04:00;2.67;;;1.20;;
14817;SDS011;7500;57.698;11.986;2022-11-20T10:06:30;1.60;;;1.40;;
14817;SDS011;7500;57.698;11.986;2022-11-20T10:09:01;3.73;;;1.50;;
14817;SDS011;7500;57.698;11.986;2022-11-20T10:11:37;1.93;;;1.20;;
14817;SDS011;7500;57.698;11.986;2022-11-20T10:14:16;1.20;;;1.10;;
14817;SDS011;7500;57.698;11.986;2022-11-20T10:16:55;1.90;;;1.20;;
14817;SDS011;7500;57.698;11.986;2022-11-20T10:19:52;1.23;;;1.07;;
14817;SDS011;7500;57.698;11.986;2022-11-20T10:22:34;1.27;;;1.00;;
14817;SDS011;7500;57.698;11.986;2022-11-20T10:25:14;1.90;;;1.10;;
14817;SDS011;7500;57.698;11.986;2022-11-20T10:30:45;1.93;;;1.40;;
14817;SDS011;7500;57.698;11.986;2022-11-20T10:33:17;1.10;;;0.93;;
14817;SDS011;7500;57.698;11.986;2022-11-20T10:35:49;2.30;;;0.83;;
14817;SDS011;7500;57.698;11.986;2022-11-20T10:38:23;1.63;;;1.00;;
14817;SDS011;7500;57.698;11.986;2022-11-20T10:40:53;1.03;;;0.93;;
14817;SDS011;7500;57.698;11.986;2022-11-20T10:43:43;1.37;;;1.00;;
14817;SDS011;7500;57.698;11.986;2022-11-20T10:46:12;1.63;;;1.30;;
14817;SDS011;7500;57.698;11.986;2022-11-20T10:48:43;1.07;;;0.93;;
14817;SDS011;7500;57.698;11.986;2022-11-20T10:51:13;1.23;;;1.00;;
14817;SDS011;7500;57.698;11.986;2022-11-20T10:53:58;1.47;;;1.30;;
14817;SDS011;7500;57.698;11.986;2022-11-20T10:56:38;1.50;;;1.03;;
14817;SDS011;7500;57.698;11.986;2022-11-20T10:59:14;1.50;;;1.20;;
14817;SDS011;7500;57.698;11.986;2022-11-20T11:02:14;1.27;;;1.17;;
14817;SDS011;7500;57.698;11.986;2022-11-20T11:04:44;1.30;;;1.00;;
14817;SDS011;7500;57.698;11.986;2022-11-20T11:07:14;1.67;;;1.13;;
14817;SDS011;7500;57.698;11.986;2022-11-20T11:09:46;2.70;;;1.10;;
14817;SDS011;7500;57.698;11.986;2022-11-20T11:12:14;2.10;;;1.00;;
14817;SDS011;7500;57.698;11.986;2022-11-20T11:14:41;1.47;;;0.97;;
14817;SDS011;7500;57.698;11.986;2022-11-20T11:17:18;1.53;;;0.97;;
14817;SDS011;7500;57.698;11.986;2022-11-20T11:19:57;3.93;;;1.13;;
14817;SDS011;7500;57.698;11.986;2022-11-20T11:22:29;1.47;;;1.00;;
14817;SDS011;7500;57.698;11.986;2022-11-20T11:24:58;1.27;;;1.07;;
14817;SDS011;7500;57.698;11.986;2022-11-20T11:27:25;0.80;;;0.80;;
14817;SDS011;7500;57.698;11.986;2022-11-20T11:30:01;1.53;;;1.03;;
14817;SDS011;7500;57.698;11.986;2022-11-20T11:32:37;0.67;;;0.67;;
14817;SDS011;7500;57.698;11.986;2022-11-20T11:35:06;1.10;;;0.80;;
14817;SDS011;7500;57.698;11.986;2022-11-20T11:37:44;0.90;;;0.70;;
14817;SDS011;7500;57.698;11.986;2022-11-20T11:40:13;1.77;;;0.97;;
14817;SDS011;7500;57.698;11.986;2022-11-20T11:42:41;2.17;;;0.87;;
14817;SDS011;7500;57.698;11.986;2022-11-20T11:45:11;2.33;;;1.10;;
14817;SDS011;7500;57.698;11.986;2022-11-20T11:47:43;0.87;;;0.87;;
14817;SDS011;7500;57.698;11.986;2022-11-20T11:50:16;0.77;;;0.70;;
14817;SDS011;7500;57.698;11.986;2022-11-20T11:52:46;1.10;;;0.70;;
14817;SDS011;7500;57.698;11.986;2022-11-20T11:55:21;1.40;;;1.00;;
14817;SDS011;7500;57.698;11.986;2022-11-20T11:57:58;1.90;;;0.90;;
14817;SDS011;7500;57.698;11.986;2022-11-20T12:00:30;1.57;;;0.67;;
14817;SDS011;7500;57.698;11.986;2022-11-20T12:03:00;1.33;;;1.00;;
14817;SDS011;7500;57.698;11.986;2022-11-20T12:05:38;1.83;;;1.40;;
14817;SDS011;7500;57.698;11.986;2022-11-20T12:08:11;3.00;;;0.97;;
14817;SDS011;7500;57.698;11.986;2022-11-20T12:10:45;1.40;;;1.10;;
14817;SDS011;7500;57.698;11.986;2022-11-20T12:13:31;1.10;;;0.80;;
14817;SDS011;7500;57.698;11.986;2022-11-20T12:16:09;4.03;;;1.00;;
14817;SDS011;7500;57.698;11.986;2022-11-20T12:18:39;1.93;;;0.87;;
14817;SDS011;7500;57.698;11.986;2022-11-20T12:23:59;1.10;;;0.90;;
14817;SDS011;7500;57.698;11.986;2022-11-20T12:26:41;3.13;;;1.13;;
14817;SDS011;7500;57.698;11.986;2022-11-20T12:29:18;1.00;;;0.90;;
14817;SDS011;7500;57.698;11.986;2022-11-20T12:32:03;6.67;;;1.20;;
14817;SDS011;7500;57.698;11.986;2022-11-20T12:34:47;2.20;;;1.10;;
14817;SDS011;7500;57.698;11.986;2022-11-20T12:37:31;1.20;;;1.10;;
14817;SDS011;7500;57.698;11.986;2022-11-20T12:40:08;0.80;;;0.80;;
14817;SDS011;7500;57.698;11.986;2022-11-20T12:42:50;2.50;;;1.00;;
14817;SDS011;7500;57.698;11.986;2022-11-20T12:45:54;1.27;;;0.80;;
14817;SDS011;7500;57.698;11.986;2022-11-20T12:51:43;1.50;;;1.00;;
14817;SDS011;7500;57.698;11.986;2022-11-20T12:54:25;1.20;;;1.10;;
14817;SDS011;7500;57.698;11.986;2022-11-20T12:57:12;1.27;;;0.90;;
14817;SDS011;7500;57.698;11.986;2022-11-20T13:02:42;3.47;;;1.50;;
14817;SDS011;7500;57.698;11.986;2022-11-20T13:05:24;1.40;;;0.80;;
14817;SDS011;7500;57.698;11.986;2022-11-20T13:07:59;1.60;;;1.23;;
14817;SDS011;7500;57.698;11.986;2022-11-20T13:10:30;0.80;;;0.80;;
14817;SDS011;7500;57.698;11.986;2022-11-20T13:13:03;2.67;;;1.33;;
14817;SDS011;7500;57.698;11.986;2022-11-20T13:15:47;1.57;;;1.10;;
14817;SDS011;7500;57.698;11.986;2022-11-20T13:18:17;0.87;;;0.80;;
14817;SDS011;7500;57.698;11.986;2022-11-20T13:20:45;1.17;;;0.90;;
14817;SDS011;7500;57.698;11.986;2022-11-20T13:23:22;1.10;;;1.00;;
14817;SDS011;7500;57.698;11.986;2022-11-20T13:26:02;1.00;;;0.90;;
14817;SDS011;7500;57.698;11.986;2022-11-20T13:28:31;1.13;;;0.90;;
14817;SDS011;7500;57.698;11.986;2022-11-20T13:30:58;0.90;;;0.77;;
14817;SDS011;7500;57.698;11.986;2022-11-20T13:33:29;1.03;;;0.80;;
14817;SDS011;7500;57.698;11.986;2022-11-20T13:35:59;0.90;;;0.80;;
14817;SDS011;7500;57.698;11.986;2022-11-20T13:38:27;0.70;;;0.63;;
14817;SDS011;7500;57.698;11.986;2022-11-20T13:41:07;1.00;;;0.90;;
14817;SDS011;7500;57.698;11.986;2022-11-20T13:43:48;0.63;;;0.63;;
14817;SDS011;7500;57.698;11.986;2022-11-20T13:46:15;1.20;;;1.00;;
14817;SDS011;7500;57.698;11.986;2022-11-20T13:48:45;0.70;;;0.70;;
14817;SDS011;7500;57.698;11.986;2022-11-20T13:51:15;1.30;;;0.70;;
14817;SDS011;7500;57.698;11.986;2022-11-20T13:54:07;1.77;;;0.93;;
14817;SDS011;7500;57.698;11.986;2022-11-20T13:56:50;0.77;;;0.77;;
14817;SDS011;7500;57.698;11.986;2022-11-20T13:59:32;1.33;;;0.80;;
14817;SDS011;7500;57.698;11.986;2022-11-20T14:02:11;1.03;;;0.83;;
14817;SDS011;7500;57.698;11.986;2022-11-20T14:04:42;1.73;;;0.87;;
14817;SDS011;7500;57.698;11.986;2022-11-20T14:07:11;0.97;;;0.87;;
14817;SDS011;7500;57.698;11.986;2022-11-20T14:09:48;1.30;;;1.15;;
14817;SDS011;7500;57.698;11.986;2022-11-20T14:12:18;1.70;;;1.20;;
14817;SDS011;7500;57.698;11.986;2022-11-20T14:14:48;2.20;;;1.03;;
14817;SDS011;7500;57.698;11.986;2022-11-20T14:17:17;1.33;;;1.10;;
14817;SDS011;7500;57.698;11.986;2022-11-20T14:19:46;1.70;;;1.00;;
14817;SDS011;7500;57.698;11.986;2022-11-20T14:22:18;4.50;;;1.30;;
14817;SDS011;7500;57.698;11.986;2022-11-20T14:24:47;2.07;;;1.00;;
14817;SDS011;7500;57.698;11.986;2022-11-20T14:27:14;0.83;;;0.80;;
14817;SDS011;7500;57.698;11.986;2022-11-20T14:29:44;1.13;;;0.90;;
14817;SDS011;7500;57.698;11.986;2022-11-20T14:32:14;1.77;;;0.80;;
14817;SDS011;7500;57.698;11.986;2022-11-20T14:34:43;1.00;;;0.90;;
14817;SDS011;7500;57.698;11.986;2022-11-20T14:37:13;2.10;;;0.80;;
14817;SDS011;7500;57.698;11.986;2022-11-20T14:39:48;1.57;;;1.20;;
14817;SDS011;7500;57.698;11.986;2022-11-20T14:42:17;1.37;;;1.10;;
14817;SDS011;7500;57.698;11.986;2022-11-20T14:44:47;1.30;;;0.90;;
14817;SDS011;7500;57.698;11.986;2022-11-20T14:47:17;0.60;;;0.60;;
14817;SDS011;7500;57.698;11.986;2022-11-20T14:49:48;0.80;;;0.77;;
14817;SDS011;7500;57.698;11.986;2022-11-20T14:52:16;1.17;;;1.00;;
14817;SDS011;7500;57.698;11.986;2022-11-20T14:54:45;1.07;;;0.97;;
14817;SDS011;7500;57.698;11.986;2022-11-20T14:57:23;0.90;;;0.70;;
14817;SDS011;7500;57.698;11.986;2022-11-20T15:00:03;1.17;;;1.07;;
14817;SDS011;7500;57.698;11.986;2022-11-20T15:02:31;1.30;;;0.80;;
14817;SDS011;7500;57.698;11.986;2022-11-20T15:04:59;1.77;;;1.20;;
14817;SDS011;7500;57.698;11.986;2022-11-20T15:07:29;1.43;;;0.80;;
14817;SDS011;7500;57.698;11.986;2022-11-20T15:10:01;2.33;;;0.80;;
14817;SDS011;7500;57.698;11.986;2022-11-20T15:12:29;1.40;;;1.00;;
14817;SDS011;7500;57.698;11.986;2022-11-20T15:14:58;1.07;;;0.87;;
14817;SDS011;7500;57.698;11.986;2022-11-20T15:17:28;1.20;;;1.00;;
14817;SDS011;7500;57.698;11.986;2022-11-20T15:19:55;0.73;;;0.73;;
14817;SDS011;7500;57.698;11.986;2022-11-20T15:22:22;1.37;;;1.00;;